Beacon packets - map view · info · telemetry · weather · raw · status · beacons · messages · bulletins · browse · moving · my account
Originating callsign:
Show:

Loading beacon packets...

APRS beacon packets are stored for 14 days. It is possible to search using wildcards (*?) after a prefix.

2019-05-21 12:42:07 EDT: W9MKS-15>ID: W9MKS-15/R SRRC/D W9MKS-1/B W9MKS-7/N
2019-05-21 12:42:08 EDT: KL7JFU-4>ID: KL7JFU/R
2019-05-21 12:42:14 EDT: KK4WTW>ID: KK4WTW/R ******-1/B
2019-05-21 12:42:16 EDT: ED2ZAD-3>BEACON: Asociacion Radioaficionados Bilbainos -
2019-05-21 12:42:17 EDT: WA2CBS-1>ID: WA2CBS/R
2019-05-21 12:42:17 EDT: N3KTX-3>BEACON: MasonDixon A.P.R.S. Group at 146.895- with IRLP 7070
2019-05-21 12:42:18 EDT: SIMLA>BEACON: WA0DE SIMLA digi ARESDEC
2019-05-21 12:42:20 EDT: WEBER1>ID: WEBER1/R KD7FDH-1/B
2019-05-21 12:42:24 EDT: WHTNY>BEACON: KD5DMT-5 APRS Digipeater
2019-05-21 12:42:25 EDT: N6ZX>BEACON: N6ZX Kings Mt. ARC, bbs KMBBS, KaNode WOODY, knet WBAY
2019-05-21 12:41:40 EDT: NC6J-1>ID: NC6J BPQ Packet Node in Sacramento, CA
2019-05-21 12:42:07 EDT: W4NN-1>BEACON: W4NN-1 Wn EARS DIGI EGLIN AFB FL
2019-05-21 12:42:14 EDT: NR6G-9>BEACON: National Weather Service remote repeater Buck Rock, CA
2019-05-21 12:42:16 EDT: W7PKT>ID: W7PKT/R
2019-05-21 12:42:17 EDT: IR8BU-11>ID: IR8BU-11/R IW8ELN-1/B
2019-05-21 12:42:17 EDT: JAYUYA>BEACON: KP4IA APRS DIGI EL CACIQUE - JAYUYA - KP4IA-3 PBBS 144.390 MHz
2019-05-21 12:42:23 EDT: W0ZRT-7>UIDIGI: UIDIGI 1.9
2019-05-21 12:42:41 EDT: KB3SVY-2>CQ: WEST VINCENT TWP EOC
2019-05-21 12:42:42 EDT: WB2SNN-15>ID: WB2SNN-15/R WB2SNN-1/B
2019-05-21 12:42:48 EDT: N5LUY-10>ID: N5LUY-10/R DISABL/D N5LUY-1/B
2019-05-21 12:42:26 EDT: DL1JCZ-9>ID: DL1JCZ/R
2019-05-21 12:42:27 EDT: DK4SDR-3>UIDIGI: UIDIGI 1.9
2019-05-21 12:42:27 EDT: 9A3XK>BEACON: CRLNet.108 - SysOp 9a3XK & 9a7kxp-Internet via DJWIRELES http://djw.hr/
2019-05-21 12:42:28 EDT: N6UTC-5>ID: N6UTC-5/R W0LVES/D N6UTC-3/G N6UTC-1/B
2019-05-21 12:42:29 EDT: LU1DNS-4>ID: [GF05rm] BPQ NODE PACKET (BBS CALL LU1DNS)
2019-05-21 12:42:35 EDT: KE0AE>BEACON: Genoa, Colo. WX/APRS Digi Station Voice 147.060 PL 103.5
2019-05-21 12:42:37 EDT: 9A3XK>BEACON: Power 9W Gain 3dB Height 240m Ant omni
2019-05-21 12:42:40 EDT: N0QK-1>ID: N0QK/R
2019-05-21 12:42:41 EDT: VK5RLH-1>UIDIGI: UIDIGI 1.9
2019-05-21 12:42:48 EDT: W0OFK-4>BEACON: 146.730- *111111z4201.88N/09721.45WrT131 Net 7:30pm Mon EVARC
2019-05-21 12:42:49 EDT: W2WCR-2>UIDIGI: UIDIGI 1.9
2019-05-21 12:42:52 EDT: WA7RVV-8>ID: WA7RVV-8/R BLACKT/D NONE/B
2019-05-21 12:42:53 EDT: KK7DO-1>BEACON: 145.430- PL 123.0 Repeater
2019-05-21 12:42:58 EDT: KC4PL-12>BEACON: z
2019-05-21 12:42:59 EDT: WX6HNX-6>BEACON: National Weather Service remote weather station Huron, CA
2019-05-21 12:43:01 EDT: F1ZCP-3>ID: >DIGINED: Gat 144.8<=>439.7 09 ORGIBET JN02LW
2019-05-21 12:43:07 EDT: SP2ZIE-2>UIDIGI: UIDIGI 1.9
2019-05-21 12:43:07 EDT: KB8UVN-7>ID: Network node (JTSW1)
2019-05-21 12:43:11 EDT: ED2YAL-15>UIDIGI: UIDIGI 1.9
2019-05-21 12:43:13 EDT: KC8BRO-4>ID: KC8BRO-4 BPQ Net/Rom Switch
2019-05-21 12:42:57 EDT: IQ0GH>BEACON: Digipeater -U=13.3V - IQ0GH ARI-RE Citta' di castello PG
2019-05-21 12:42:58 EDT: EA2BKH-3>UIDIGI: UIDIGI 1.9
2019-05-21 12:43:02 EDT: MTCLMN>BEACON: W8FSM/WA8MAC
2019-05-21 12:43:06 EDT: ZS4OIL-1>ID: ZS4OIL-1/R ZS4OIL-3/G
2019-05-21 12:43:08 EDT: W2CMC-15>BEACON: Cape May County NJ RACES/ARES
2019-05-21 12:43:13 EDT: DISABL>ID: Network Node
2019-05-21 12:43:16 EDT: NG5V-2>UIDIGI: UIDIGI 1.9
2019-05-21 12:43:17 EDT: SNOBNK>BEACON: 146.62T100 Cascade, ID APRS 8322 ft www.voiceofidaho.org (APRS Info: www.nwaprs.org) W7VOI
2019-05-21 12:43:22 EDT: WX5II-11>ID: W.BEXAR Co.
2019-05-21 12:43:22 EDT: IR6AM>ID: IR6AM/R RELAY/R WIDE/R TRACE/R WIDEn-n/R TRACEn-n/R
< previous
FAQ · Blog · Discussion group · Linking to aprs.fi · AIS sites · Service status · Database statistics · Advertising on aprs.fi · Technical details · API · Change log · Planned changes · Credits and thanks · Terms Of Service · iPhone/iPad APRS